Terminal Aerodrome Forecast
Issued by NWS Northern Indiana

Home | Current Version | Previous Version | Text Only | Print | Product List | Glossary On
Versions: 1 2 3 4 5 6 7 8 9 10 11 12 13 14 15 16 17 18
059
FTUS43 KIWX 132320
TAFFWA
TAF
KFWA 132320Z 1400/1424 06007KT P6SM BKN200
     FM140600 07005KT P6SM OVC070
     FM141400 09005KT 4SM BR OVC015=

USA.gov is the U.S. government's official web portal to all federal, state and local government web resources and services.